LFGE weather

Public forecast

Using degrees Celsius for public forecast. Weather courtesy of forecast.io.

Closest aviation weather report (METAR) to Avallon Airport

Closest report is Nevers-Fourchambault Airport, 43.9 nm (81.3 km) SW. Retrieved 2020/08/13 17:30 UTC (0 seconds ago):

LFQG 131730Z AUTO 21008KT 180V250 CAVOK 23/16 Q1015

Closest aviation forecast (TAF) to Avallon Airport

Forecast is more than 12 hours old.

Closest forecast is Dijon-Bourgogne Airport, 50.4 nm (93.3 km) ESE. Retrieved 2015/06/01 00:11 UTC (5 years ago):

TAF LFSD 010600Z 0100/0124 CNL